Weather reports worldwide

Advertisment
Sciacca, Italy (16436): temperature & dewpoint: 19.09.2018 12:00:00 - 25.09.2018 12:00:00 (CEST)Sciacca, Italy (16436): wind speed: 19.09.2018 12:00:00 - 25.09.2018 12:00:00 (CEST)Sciacca, Italy (16436): wind direction: 19.09.2018 12:00:00 - 25.09.2018 12:00:00 (CEST)Sciacca, Italy (16436): reduced air pressure: 19.09.2018 12:00:00 - 25.09.2018 12:00:00 (CEST)Sciacca, Italy (16436): precipitation: 19.09.2018 12:00:00 - 25.09.2018 12:00:00 (CEST)
Date & Time tt [°C] td [°C] ff [km/h] ff [kn] dd ppp [hPa] rr [mm]
25.09.2018 12:00:00 - - - - - - -
25.09.2018 11:00:00 25,4 23,2 8 4 SE 1029,6 -
25.09.2018 10:00:00 24,5 22,9 5 3 SE 1029,6 -
25.09.2018 09:00:00 22,7 20,7 4 2 ENE 1029,1 -
25.09.2018 08:00:00 19,5 17,9 - - - 1028,7 0,0
25.09.2018 07:00:00 18,5 16,8 - - - 1028,4 -
25.09.2018 06:00:00 19,0 16,7 - - - 1027,7 -
25.09.2018 05:00:00 20,4 15,7 0 0 N 1027,5 -
25.09.2018 04:00:00 21,7 16,6 9 5 NNE 1027,3 -
25.09.2018 03:00:00 20,3 18,2 2 1 NNW 1027,6 -
25.09.2018 02:00:00 19,7 17,6 0 0 N 1027,5 0,0
25.09.2018 01:00:00 20,5 18,7 4 2 NNE 1027,2 -
25.09.2018 00:00:00 20,6 18,8 4 2 E 1026,9 -
24.09.2018 23:00:00 21,8 19,5 4 2 NE 1026,8 -
24.09.2018 22:00:00 22,7 19,8 5 3 N 1026,4 -
24.09.2018 21:00:00 23,6 20,3 5 3 NNW 1025,9 -
24.09.2018 20:00:00 24,4 19,8 5 3 ESE 1025,0 0,0
24.09.2018 19:00:00 25,5 21,5 8 4 ENE 1024,4 -
24.09.2018 18:00:00 26,3 21,9 22 12 W 1024,0 -
24.09.2018 17:00:00 25,7 23,9 18 10 WSW 1024,5 -
24.09.2018 16:00:00 26,6 24,0 16 9 WSW 1024,8 -
24.09.2018 15:00:00 26,1 23,3 18 10 WSW 1025,4 -
24.09.2018 14:00:00 26,2 24,4 15 8 WSW 1026,0 0,0
24.09.2018 13:00:00 25,3 23,7 15 8 WSW 1026,8 -
24.09.2018 12:00:00 24,6 23,3 5 3 S 1027,4 -
24.09.2018 11:00:00 24,0 22,9 5 3 S 1027,7 -
24.09.2018 10:00:00 23,4 23,0 5 3 SSW 1027,9 -
24.09.2018 09:00:00 21,4 21,0 - - - 1028,0 -
24.09.2018 08:00:00 20,8 20,4 - - - 1027,7 0,0
24.09.2018 07:00:00 20,6 20,1 - - - 1027,9 -
24.09.2018 06:00:00 21,2 20,8 - - - 1028,0 -
24.09.2018 05:00:00 21,4 21,0 5 3 NW 1028,3 -
24.09.2018 04:00:00 20,5 20,0 4 2 NE 1028,6 -
24.09.2018 03:00:00 21,3 20,6 4 2 N 1028,9 -
24.09.2018 02:00:00 21,8 20,9 5 3 WNW 1029,4 0,0
24.09.2018 01:00:00 22,2 21,5 9 5 WNW 1029,7 -
24.09.2018 00:00:00 21,6 20,5 0 0 N 1030,0 -
23.09.2018 23:00:00 22,6 21,5 5 3 W 1030,0 -
23.09.2018 22:00:00 22,8 21,7 15 8 WNW 1029,9 -
23.09.2018 21:00:00 23,1 22,0 16 9 WNW 1029,5 -
23.09.2018 20:00:00 23,4 22,1 15 8 WNW 1029,1 0,0
23.09.2018 19:00:00 24,3 22,3 9 5 W 1029,0 -
23.09.2018 18:00:00 25,2 23,0 9 5 W 1028,9 -
23.09.2018 17:00:00 25,2 23,4 13 7 WSW 1029,1 -
23.09.2018 16:00:00 25,6 23,8 11 6 WSW 1029,2 -
23.09.2018 15:00:00 26,2 24,2 11 6 WSW 1029,6 -
23.09.2018 14:00:00 25,4 23,2 11 6 SW 1030,1 0,0
23.09.2018 13:00:00 25,6 24,0 9 5 SW 1030,4 -
23.09.2018 12:00:00 25,3 23,9 8 4 SW 1030,8 -
23.09.2018 11:00:00 25,2 24,1 4 2 S 1030,7 -
23.09.2018 10:00:00 23,6 23,2 4 2 SSW 1030,7 -
23.09.2018 09:00:00 22,4 22,3 0 0 N 1030,6 -
23.09.2018 08:00:00 21,0 20,9 4 2 NE 1030,1 0,0
23.09.2018 07:00:00 20,0 19,9 4 2 NNE 1029,7 -
23.09.2018 06:00:00 20,3 20,2 4 2 NNE 1029,5 -
23.09.2018 05:00:00 20,6 20,5 4 2 NNE 1029,6 -
23.09.2018 04:00:00 20,3 20,1 4 2 N 1029,5 -
23.09.2018 03:00:00 20,7 20,6 4 2 NE 1029,8 -
23.09.2018 02:00:00 20,6 20,4 2 1 NNW 1029,9 0,0
23.09.2018 01:00:00 20,5 20,1 - - - 1029,9 -
23.09.2018 00:00:00 20,9 20,5 2 1 NNE 1029,5 -
22.09.2018 23:00:00 21,3 20,9 5 3 NNE 1029,1 -
22.09.2018 22:00:00 21,6 21,1 4 2 NNE 1029,1 -
22.09.2018 21:00:00 22,0 21,3 4 2 NNE 1028,6 -
22.09.2018 20:00:00 22,8 21,6 2 1 NW 1027,8 0,0
22.09.2018 19:00:00 24,0 22,6 4 2 SE 1027,1 -
22.09.2018 18:00:00 24,5 23,1 5 3 SE 1026,5 -
22.09.2018 17:00:00 24,5 23,1 5 3 SE 1026,7 -
22.09.2018 16:00:00 25,5 24,0 8 4 SSE 1026,8 -
22.09.2018 15:00:00 25,2 24,3 5 3 SE 1027,0 -
22.09.2018 14:00:00 23,6 23,0 4 2 E 1027,6 0,0
22.09.2018 13:00:00 22,9 22,7 4 2 ENE 1027,6 -
22.09.2018 12:00:00 22,0 21,9 - - - 1027,7 -
22.09.2018 11:00:00 21,4 21,3 - - - 1027,3 -
22.09.2018 10:00:00 21,4 21,2 - - - 1027,2 -
22.09.2018 09:00:00 21,9 21,8 - - - 1026,4 -
22.09.2018 08:00:00 22,0 21,8 - - - 1026,1 0,0
22.09.2018 07:00:00 21,5 21,1 - - - 1025,5 -
22.09.2018 06:00:00 21,9 21,5 - - - 1025,4 -
22.09.2018 05:00:00 22,1 21,7 - - - 1025,2 -
22.09.2018 04:00:00 21,6 21,1 - - - 1025,5 -
22.09.2018 03:00:00 22,0 21,3 - - - 1025,6 -
22.09.2018 02:00:00 23,3 22,2 - - - 1025,8 0,0
22.09.2018 01:00:00 23,2 22,3 - - - 1026,0 -
22.09.2018 00:00:00 22,5 21,8 - - - 1026,1 -
21.09.2018 23:00:00 22,3 21,6 5 3 ESE 1026,0 -
21.09.2018 22:00:00 22,3 21,4 5 3 E 1025,7 -
21.09.2018 21:00:00 22,3 21,4 4 2 NNE 1025,3 -
21.09.2018 20:00:00 22,6 21,5 2 1 E 1024,9 0,0
21.09.2018 19:00:00 23,1 21,8 2 1 ESE 1024,6 -
21.09.2018 18:00:00 24,2 22,9 8 4 SSE 1024,3 -
21.09.2018 17:00:00 24,5 23,1 9 5 SSE 1024,4 -
21.09.2018 16:00:00 25,1 23,7 8 4 SE 1024,6 -
21.09.2018 15:00:00 24,1 23,2 9 5 SSE 1025,4 -
21.09.2018 14:00:00 21,8 21,4 9 5 NE 1026,1 0,0
21.09.2018 13:00:00 21,1 20,6 5 3 E 1026,6 -
21.09.2018 12:00:00 21,3 20,6 9 5 SSE 1026,7 -
21.09.2018 11:00:00 22,0 21,4 11 6 ESE 1026,2 -
21.09.2018 10:00:00 21,7 21,5 5 3 NNE 1025,8 -
21.09.2018 09:00:00 20,7 20,6 4 2 NE 1025,4 -
21.09.2018 08:00:00 20,0 19,8 5 3 NE 1025,3 0,0
21.09.2018 07:00:00 20,1 20,0 5 3 ENE 1024,9 -
21.09.2018 06:00:00 19,9 19,8 8 4 NNE 1024,5 -
21.09.2018 05:00:00 19,8 19,6 8 4 NE 1025,3 -
21.09.2018 04:00:00 19,7 19,5 8 4 NNE 1025,2 -
21.09.2018 03:00:00 19,6 19,1 9 5 NE 1025,5 -
21.09.2018 02:00:00 21,3 20,4 - - - 1025,7 0,0
21.09.2018 01:00:00 21,3 20,2 5 3 NE 1025,9 -
21.09.2018 00:00:00 21,2 20,1 - - - 1026,2 -
20.09.2018 23:00:00 21,5 20,6 - - - 1026,3 -
20.09.2018 22:00:00 21,7 21,0 - - - 1026,2 -
20.09.2018 21:00:00 22,0 20,9 4 2 NNE 1025,6 -
20.09.2018 20:00:00 22,6 21,2 0 0 N 1025,3 0,0
20.09.2018 19:00:00 24,0 22,2 0 0 N 1024,9 -
20.09.2018 18:00:00 24,9 23,3 5 3 S 1024,8 -
20.09.2018 17:00:00 25,2 23,4 9 5 SW 1025,3 -
20.09.2018 16:00:00 25,2 23,4 8 4 SW 1025,2 -
20.09.2018 15:00:00 24,9 23,3 5 3 S 1025,9 -
20.09.2018 14:00:00 25,2 22,8 8 4 SSW 1026,4 0,0
20.09.2018 13:00:00 25,4 22,2 5 3 SW 1027,2 -
20.09.2018 12:00:00 24,5 22,5 5 3 S 1027,6 -
20.09.2018 11:00:00 24,7 23,1 - - - 1027,6 -
20.09.2018 10:00:00 22,7 22,0 5 3 ENE 1027,8 -
20.09.2018 09:00:00 21,2 21,0 5 3 NE 1027,7 -
20.09.2018 08:00:00 20,5 20,3 4 2 NNW 1028,1 0,0
20.09.2018 07:00:00 20,3 20,1 5 3 N 1027,7 -
20.09.2018 06:00:00 20,5 20,3 4 2 NNE 1027,6 -
20.09.2018 05:00:00 20,6 20,2 2 1 NW 1027,8 -
20.09.2018 04:00:00 20,5 20,1 0 0 N 1027,7 -
20.09.2018 03:00:00 20,2 19,8 4 2 N 1028,0 -
20.09.2018 02:00:00 20,3 19,9 4 2 NNE 1028,2 0,0
20.09.2018 01:00:00 20,9 20,5 8 4 NNE 1028,9 -
20.09.2018 00:00:00 20,8 20,1 9 5 NNE 1029,5 -
19.09.2018 23:00:00 21,7 20,8 - - - 1029,2 -
19.09.2018 22:00:00 22,4 21,2 4 2 N 1028,4 -
19.09.2018 21:00:00 22,9 21,7 4 2 NNE 1028,4 -
19.09.2018 20:00:00 22,8 21,2 5 3 N 1027,8 0,0
19.09.2018 19:00:00 23,7 22,3 4 2 NE 1027,1 -
19.09.2018 18:00:00 24,4 22,8 - - - 1027,3 -
19.09.2018 17:00:00 24,9 23,5 - - - 1027,5 -
19.09.2018 16:00:00 23,4 22,3 5 3 WNW 1027,2 -
19.09.2018 15:00:00 21,5 20,6 5 3 NE 1028,1 -
19.09.2018 14:00:00 24,5 18,4 13 7 NNE 1028,7 0,0
19.09.2018 13:00:00 26,9 24,7 8 4 SSW 1028,5 -
19.09.2018 12:00:00 - - - - - - -

tt = temperature
td = dewpoint
ff = wind speed
dd = wind direction
ppp = reduced air pressure
rr = precipitation

Next stations